Avondale, Louisiana
Current Conditions -  °F | °C
As of 11:36 AM on Monday 22 Dec 2014 (Local Time) from KMSY Reporting Station
Broken Clouds Broken Clouds  
Wind Chill: 22°   Ceiling: 1600
Heat Index: 22°   Visibility: 8mi
Dew Point: 18°   Wind: 13mph
Humidity: 78%   Direction: 190°S
Pressure: 29.77"   Gusts: NA
Location:  29.9137°N, 90.2078°W
Report Text: KMSY 221736Z 19011KT 8SM SCT010 BKN016 BKN150 22/18 A2977 RMK AO2 T02220183
Loading
Personal Weather Stations






























Interactive Weather Map New forecast layout! Learn more

10-Day Weather Forecast

Advertisements
Track Severe Weather on mobile